• Join FlightAware (Why Join?)
  • Login
  • US Flag 
01:57PM EDT


 

Airport Tracker/Info


-or-


 

Live Flight TrackerFlight Track Log ✈ THY2474 ✈ 13-Jun-2013 ✈ LTBA / IST - LTAF / ADA

Flight Track Log - Related Links

Times and Time Zones

All times are in EDT time to prevent confusion due to time zone crossing. See the THY2474 flight status page for this flight to view local times or setup timezone preferences in your user account.

Time Position Orientation Groundspeed Altitude Reporting Facility
EDT Latitude Longitude Course Direction KTS MPH feet Rate Location/Type
03:26PM 40.6061 29.4794 126° Southeast  Level Estimated
03:27PM 40.5439 29.5884 127° Southeast  Level Estimated
03:28PM 40.4816 29.6972 127° Southeast  Level Estimated
03:29PM 40.4193 29.8058 127° Southeast  Level Estimated
03:30PM 40.3568 29.9142 127° Southeast  Level Estimated
03:31PM 40.2942 30.0224 127° Southeast  Level Estimated
03:32PM 40.2315 30.1304 127° Southeast  Level Estimated
03:33PM 40.1688 30.2382 127° Southeast  Level Estimated
03:34PM 40.1059 30.3458 127° Southeast  Level Estimated
03:35PM 40.0429 30.4532 127° Southeast  Level Estimated
03:36PM 39.9799 30.5604 127° Southeast  Level Estimated
03:37PM 39.9167 30.6674 128° Southeast  Level Estimated
03:38PM 39.8534 30.7742 128° Southeast  Level Estimated
03:39PM 39.7901 30.8808 128° Southeast  Level Estimated
03:40PM 39.7266 30.9872 128° Southeast  Level Estimated
03:41PM 39.6630 31.0935 128° Southeast  Level Estimated
03:42PM 39.5994 31.1995 128° Southeast  Level Estimated
03:43PM 39.5356 31.3053 128° Southeast  Level Estimated
03:44PM 39.4718 31.4109 128° Southeast  Level Estimated
03:45PM 39.4078 31.5164 128° Southeast  Level Estimated
03:46PM 39.3438 31.6216 128° Southeast  Level Estimated
03:47PM 39.2797 31.7267 128° Southeast  Level Estimated
03:48PM 39.2154 31.8316 128° Southeast  Level Estimated
03:49PM 39.1511 31.9362 128° Southeast  Level Estimated
03:50PM 39.0867 32.0407 128° Southeast  Level Estimated
03:51PM 39.0222 32.1450 129° Southeast  Level Estimated
03:52PM 38.9576 32.2491 129° Southeast  Level Estimated
03:53PM 38.8929 32.3530 129° Southeast  Level Estimated
03:54PM 38.8281 32.4567 129° Southeast  Level Estimated
03:55PM 38.7632 32.5602 129° Southeast  Level Estimated
03:56PM 38.6983 32.6636 129° Southeast  Level Estimated
03:57PM 38.6332 32.7667 129° Southeast  Level Estimated
03:58PM 38.5681 32.8697 129° Southeast  Level Estimated
03:59PM 38.5028 32.9725 129° Southeast  Level Estimated
04:00PM 38.4375 33.0751 129° Southeast  Level Estimated
04:01PM 38.3721 33.1775 129° Southeast  Level Estimated
04:02PM 38.3065 33.2797 129° Southeast  Level Estimated
04:03PM 38.2410 33.3817 129° Southeast  Level Estimated
04:04PM 38.1753 33.4836 129° Southeast  Level Estimated
04:05PM 38.1095 33.5853 129° Southeast  Level Estimated
04:06PM 38.0436 33.6868 129° Southeast  Level Estimated
04:07PM 37.9777 33.7881 130° Southeast  Level Estimated
04:08PM 37.9117 33.8892 130° Southeast  Level Estimated
04:09PM 37.8455 33.9901 130° Southeast  Level Estimated
04:10PM 37.7793 34.0909 130° Southeast  Level Estimated
04:11PM 37.7130 34.1915 130° Southeast  Level Estimated
04:12PM 37.6467 34.2919 130° Southeast  Level Estimated
04:13PM 37.5802 34.3921 130° Southeast  Level Estimated
04:14PM 37.5136 34.4921 130° Southeast  Level Estimated
04:15PM 37.4470 34.5920 130° Southeast  Level Estimated
04:16PM 37.3803 34.6917 130° Southeast  Level Estimated
04:17PM 37.3135 34.7912 130° Southeast  Level Estimated
04:18PM 37.2466 34.8905 130° Southeast  Level Estimated
04:19PM 37.1797 34.9897 130° Southeast  Level Estimated
04:20PM 37.1126 35.0886 130° Southeast  Level Estimated
04:21PM 37.0455 35.1874 130° Southeast  Level Estimated
04:22PM 36.9822 35.2804 130° Southeast  Level Estimated
04:23PM 36.9822 35.2804 202° Southwest  Level Estimated
04:24PM 36.9822 35.2804 202° Southwest  Level Estimated
04:25PM 36.9822 35.2804 202° Southwest  Level Estimated
04:26PM 36.9822 35.2804 202° Southwest  Level Estimated
04:27PM 36.9822 35.2804 202° Southwest  Level Estimated
04:28PM 36.9822 35.2804 202° Southwest  Level Estimated
04:29PM 36.9822 35.2804 202° Southwest  Level Estimated
04:30PM 36.9822 35.2804 202° Southwest  Level Estimated
04:31PM 36.9822 35.2804 202° Southwest  Level Estimated
04:32PM 36.9822 35.2804 202° Southwest  Level Estimated
04:33PM 36.9822 35.2804 202° Southwest  Level Estimated
04:34PM 36.9822 35.2804 202° Southwest  Level Estimated
04:35PM 36.9822 35.2804 202° Southwest  Level Estimated
04:36PM 36.9822 35.2804 202° Southwest  Level Estimated
04:37PM 36.9822 35.2804 202° Southwest  Level Estimated
04:38PM 36.9822 35.2804 202° Southwest  Level Estimated